createdAt,value
2022-11-23T00:02:29.009Z,52.40
2022-11-23T00:04:55.662Z,52.30
2022-11-23T00:07:22.360Z,52.40
2022-11-23T00:09:48.987Z,52.30
2022-11-23T00:12:15.617Z,52.30
2022-11-23T00:14:42.270Z,52.30
2022-11-23T00:17:08.933Z,52.20
2022-11-23T00:19:35.559Z,52.20
2022-11-23T00:22:02.236Z,52.30
2022-11-23T00:24:28.906Z,52.30
2022-11-23T00:26:55.615Z,52.30
2022-11-23T00:29:22.262Z,52.20
2022-11-23T00:31:48.905Z,52.20
2022-11-23T00:34:15.750Z,52.30
2022-11-23T00:36:42.406Z,52.20
2022-11-23T00:39:09.028Z,52.20
2022-11-23T00:41:35.814Z,52.20
2022-11-23T00:44:02.462Z,52.10
2022-11-23T00:46:29.194Z,52.10
2022-11-23T00:48:56.315Z,52.20
2022-11-23T00:51:27.011Z,52.00
2022-11-23T00:53:56.675Z,52.00
2022-11-23T00:56:23.348Z,52.10
2022-11-23T00:58:50.722Z,52.00
2022-11-23T01:01:17.804Z,52.10
2022-11-23T01:03:45.370Z,52.00
2022-11-23T01:06:12.814Z,52.10
2022-11-23T01:08:39.456Z,52.00
2022-11-23T01:11:07.010Z,52.00
2022-11-23T01:13:33.667Z,52.00
2022-11-23T01:16:00.515Z,52.00
2022-11-23T01:18:27.220Z,52.00
2022-11-23T01:20:53.932Z,52.00
2022-11-23T01:23:20.557Z,52.00
2022-11-23T01:25:47.270Z,52.00
2022-11-23T01:28:13.885Z,52.10
2022-11-23T01:30:40.690Z,52.00
2022-11-23T01:33:07.330Z,52.00
2022-11-23T01:35:34.092Z,52.00
2022-11-23T01:38:00.750Z,52.00
2022-11-23T01:40:27.432Z,52.00
2022-11-23T01:42:58.121Z,52.00
2022-11-23T01:45:24.803Z,52.00
2022-11-23T01:47:51.420Z,52.00
2022-11-23T01:50:18.110Z,52.00
2022-11-23T01:52:44.744Z,52.00
2022-11-23T01:55:11.363Z,52.00
2022-11-23T01:57:39.488Z,52.00
2022-11-23T02:00:06.388Z,52.00
2022-11-23T02:02:33.057Z,52.00
2022-11-23T02:04:59.768Z,52.00
2022-11-23T02:07:26.535Z,52.00
2022-11-23T02:09:53.265Z,52.00
2022-11-23T02:12:19.896Z,52.00
2022-11-23T02:14:46.493Z,52.00
2022-11-23T02:17:13.441Z,52.00
2022-11-23T02:20:03.518Z,52.00
2022-11-23T02:22:42.396Z,52.00
2022-11-23T02:25:10.902Z,52.00
2022-11-23T02:27:37.519Z,52.00
2022-11-23T02:30:04.377Z,52.00
2022-11-23T02:32:31.004Z,52.00
2022-11-23T02:34:57.633Z,52.00
2022-11-23T02:37:24.374Z,52.00
2022-11-23T02:39:51.379Z,52.00
2022-11-23T02:42:18.117Z,52.00
2022-11-23T02:44:50.785Z,52.00
2022-11-23T02:47:17.488Z,52.00
2022-11-23T02:49:46.005Z,52.00
2022-11-23T02:52:12.631Z,52.00
2022-11-23T02:54:39.250Z,52.00
2022-11-23T02:57:05.866Z,52.00
2022-11-23T02:59:34.142Z,51.90
2022-11-23T03:02:01.153Z,52.00
2022-11-23T03:04:28.301Z,52.00
2022-11-23T03:06:55.197Z,52.00
2022-11-23T03:09:21.845Z,52.00
2022-11-23T03:11:48.511Z,52.00
2022-11-23T03:14:15.127Z,52.00
2022-11-23T03:16:41.729Z,52.00
2022-11-23T03:19:08.351Z,52.00
2022-11-23T03:21:34.960Z,51.90
2022-11-23T03:24:01.669Z,51.90
2022-11-23T03:26:31.302Z,51.90
2022-11-23T03:28:57.906Z,51.90
2022-11-23T03:31:24.559Z,51.90
2022-11-23T03:33:51.162Z,51.90
2022-11-23T03:36:17.920Z,51.90
2022-11-23T03:38:44.541Z,51.90
2022-11-23T03:41:11.151Z,51.90
2022-11-23T03:43:37.769Z,51.70
2022-11-23T03:46:04.501Z,51.80
2022-11-23T03:48:31.151Z,51.90
2022-11-23T03:50:57.770Z,51.80
2022-11-23T03:53:24.416Z,51.80
2022-11-23T03:55:51.086Z,51.70
2022-11-23T03:58:17.722Z,51.80
2022-11-23T04:00:44.387Z,51.70
2022-11-23T04:03:11.280Z,51.80
2022-11-23T04:05:37.889Z,51.90
2022-11-23T04:08:04.696Z,51.80
2022-11-23T04:10:31.308Z,51.80
2022-11-23T04:12:58.057Z,51.80
2022-11-23T04:15:24.700Z,51.70
2022-11-23T04:17:51.338Z,51.80
2022-11-23T04:20:21.012Z,51.80
2022-11-23T04:22:47.635Z,51.70
2022-11-23T04:25:14.265Z,51.70
2022-11-23T04:27:40.890Z,51.70
2022-11-23T04:30:07.874Z,51.70
2022-11-23T04:32:34.519Z,51.70
2022-11-23T04:35:01.198Z,51.70
2022-11-23T04:37:27.843Z,51.70
2022-11-23T04:39:54.450Z,51.70
2022-11-23T04:42:21.104Z,51.70
2022-11-23T04:44:47.696Z,51.70
2022-11-23T04:47:14.348Z,51.70
2022-11-23T04:49:40.996Z,51.70
2022-11-23T04:52:07.658Z,51.70
2022-11-23T04:54:34.327Z,51.70
2022-11-23T04:57:00.958Z,51.60
2022-11-23T04:59:27.547Z,51.60
2022-11-23T05:01:54.188Z,51.60
2022-11-23T05:04:20.856Z,51.60
2022-11-23T05:06:47.551Z,51.60
2022-11-23T05:09:14.198Z,51.60
2022-11-23T05:11:40.905Z,51.60
2022-11-23T05:14:07.530Z,51.60
2022-11-23T05:16:34.241Z,51.70
2022-11-23T05:19:00.893Z,51.70
2022-11-23T05:21:27.571Z,51.70
2022-11-23T05:23:54.202Z,51.70
2022-11-23T05:26:20.818Z,51.70
2022-11-23T05:28:47.439Z,51.70
2022-11-23T05:31:14.068Z,51.70
2022-11-23T05:33:43.927Z,51.60
2022-11-23T05:36:13.941Z,51.50
2022-11-23T05:38:41.074Z,51.60
2022-11-23T05:41:07.824Z,51.20
2022-11-23T05:43:34.537Z,51.10
2022-11-23T05:46:01.494Z,50.70
2022-11-23T05:48:28.139Z,50.60
2022-11-23T05:50:54.879Z,50.60
2022-11-23T05:53:21.508Z,50.60
2022-11-23T05:55:48.222Z,50.80
2022-11-23T05:58:14.937Z,50.90
2022-11-23T06:00:41.585Z,51.20
2022-11-23T06:03:11.323Z,51.30
2022-11-23T06:05:39.391Z,51.40
2022-11-23T06:08:06.013Z,51.50
2022-11-23T06:10:32.665Z,51.10
2022-11-23T06:13:03.575Z,51.60
2022-11-23T06:15:30.373Z,51.50
2022-11-23T06:18:01.170Z,51.30
2022-11-23T06:20:28.335Z,52.00
2022-11-23T06:22:55.069Z,52.00
2022-11-23T06:25:21.748Z,52.10
2022-11-23T06:27:52.744Z,52.10
2022-11-23T06:30:19.379Z,52.10
2022-11-23T06:32:46.123Z,52.60
2022-11-23T06:35:12.897Z,52.00
2022-11-23T06:37:39.551Z,52.00
2022-11-23T06:40:06.491Z,52.10
2022-11-23T06:42:40.456Z,52.00
2022-11-23T06:45:07.642Z,52.00
2022-11-23T06:47:34.314Z,52.00
2022-11-23T06:50:00.966Z,51.90
2022-11-23T06:52:27.609Z,51.90
2022-11-23T06:54:54.286Z,51.90
2022-11-23T06:57:20.926Z,51.90
2022-11-23T06:59:48.370Z,51.90
2022-11-23T07:02:15.079Z,51.90
2022-11-23T07:04:41.679Z,51.90
2022-11-23T07:07:08.681Z,51.90
2022-11-23T07:09:35.839Z,51.90
2022-11-23T07:12:02.919Z,52.00
2022-11-23T07:14:29.582Z,51.90
2022-11-23T07:16:56.288Z,51.90
2022-11-23T07:19:22.939Z,52.50
2022-11-23T07:21:49.559Z,52.00
2022-11-23T07:24:16.302Z,52.00
2022-11-23T07:26:42.919Z,52.00
2022-11-23T07:29:10.000Z,52.10
2022-11-23T07:31:36.663Z,52.60
2022-11-23T07:34:03.316Z,52.00
2022-11-23T07:36:29.953Z,52.00
2022-11-23T07:38:56.569Z,52.00
2022-11-23T07:41:23.188Z,52.00
2022-11-23T07:43:49.780Z,52.00
2022-11-23T07:46:16.448Z,52.10
2022-11-23T07:48:43.121Z,52.00
2022-11-23T07:51:09.789Z,52.00
2022-11-23T07:53:36.527Z,52.00
2022-11-23T07:56:03.651Z,52.00
2022-11-23T07:58:32.586Z,52.00
2022-11-23T08:00:59.243Z,52.00
2022-11-23T08:03:28.123Z,52.00
2022-11-23T08:05:55.055Z,52.00
2022-11-23T08:08:21.705Z,52.00
2022-11-23T08:10:52.978Z,52.00
2022-11-23T08:13:20.412Z,52.00
2022-11-23T08:15:53.373Z,52.00
2022-11-23T08:18:21.369Z,52.00
2022-11-23T08:20:48.033Z,52.00
2022-11-23T08:23:14.752Z,52.00
2022-11-23T08:25:41.635Z,52.20
2022-11-23T08:28:11.072Z,52.00
2022-11-23T08:30:37.790Z,52.00
2022-11-23T08:33:08.353Z,51.90
2022-11-23T08:35:36.632Z,52.00
2022-11-23T08:38:03.991Z,51.80
2022-11-23T08:40:30.678Z,51.80
2022-11-23T08:42:57.330Z,51.80
2022-11-23T08:45:24.034Z,51.80
2022-11-23T08:47:51.144Z,51.80
2022-11-23T08:50:17.949Z,51.80
2022-11-23T08:52:44.588Z,51.80
2022-11-23T08:55:11.949Z,51.80
2022-11-23T08:57:38.597Z,51.80
2022-11-23T09:00:05.626Z,51.70
2022-11-23T09:02:32.303Z,51.80
2022-11-23T09:04:59.049Z,51.80
2022-11-23T09:07:25.782Z,51.80
2022-11-23T09:09:52.417Z,51.90
2022-11-23T09:12:19.108Z,51.80
2022-11-23T09:14:45.767Z,51.80
2022-11-23T09:17:12.598Z,51.90
2022-11-23T09:19:39.258Z,51.80
2022-11-23T09:22:08.158Z,51.80
2022-11-23T09:24:35.057Z,51.80
2022-11-23T09:27:02.040Z,51.80
2022-11-23T09:29:28.699Z,51.80
2022-11-23T09:31:55.405Z,51.70
2022-11-23T09:34:23.034Z,51.80
2022-11-23T09:36:50.965Z,51.80
2022-11-23T09:39:17.693Z,51.70
2022-11-23T09:41:53.687Z,51.80
2022-11-23T09:44:29.813Z,51.80
2022-11-23T09:47:09.101Z,51.80
2022-11-23T09:49:38.932Z,51.80
2022-11-23T09:52:09.092Z,51.80
2022-11-23T09:54:36.650Z,51.70
2022-11-23T09:57:03.709Z,51.80
2022-11-23T09:59:30.353Z,51.80
2022-11-23T10:01:57.292Z,51.70
2022-11-23T10:04:24.059Z,51.70
2022-11-23T10:06:52.792Z,51.70
2022-11-23T10:09:24.060Z,51.70
2022-11-23T10:11:56.853Z,51.70
2022-11-23T10:14:40.171Z,51.70
2022-11-23T10:17:14.297Z,51.70
2022-11-23T10:19:50.128Z,51.70
2022-11-23T10:22:37.699Z,51.70
2022-11-23T10:25:06.065Z,51.70
2022-11-23T10:27:32.817Z,51.80
2022-11-23T10:29:59.494Z,51.70
2022-11-23T10:32:27.794Z,51.70
2022-11-23T10:35:13.445Z,51.80
2022-11-23T10:37:40.522Z,51.70
2022-11-23T10:40:22.096Z,51.70
2022-11-23T10:42:50.257Z,51.70
2022-11-23T10:45:23.918Z,51.70
2022-11-23T10:47:50.648Z,51.60
2022-11-23T10:50:37.353Z,51.60
2022-11-23T10:53:10.194Z,51.60
2022-11-23T10:55:58.735Z,51.60
2022-11-23T10:58:35.097Z,51.60
2022-11-23T11:01:02.574Z,51.60
2022-11-23T11:03:30.832Z,51.60
2022-11-23T11:06:12.865Z,51.50
2022-11-23T11:08:49.530Z,51.60
2022-11-23T11:11:22.303Z,51.60
2022-11-23T11:13:49.044Z,51.60
2022-11-23T11:16:22.884Z,51.60
2022-11-23T11:18:49.623Z,51.60
2022-11-23T11:21:36.606Z,51.60
2022-11-23T11:24:04.239Z,51.60
2022-11-23T11:26:31.768Z,52.10
2022-11-23T11:29:00.476Z,51.50
2022-11-23T11:31:33.888Z,51.50
2022-11-23T11:34:09.821Z,51.40
2022-11-23T11:36:38.569Z,51.50
2022-11-23T11:39:18.479Z,51.50
2022-11-23T11:41:46.021Z,51.40
2022-11-23T11:44:25.088Z,51.50
2022-11-23T11:46:54.365Z,51.50
2022-11-23T11:49:21.007Z,51.50
2022-11-23T11:51:49.058Z,51.50
2022-11-23T11:54:36.173Z,51.50
2022-11-23T11:57:07.342Z,51.40
2022-11-23T11:59:42.699Z,51.50
2022-11-23T12:02:25.262Z,51.40
2022-11-23T12:04:55.330Z,51.50
2022-11-23T12:07:28.590Z,51.40
2022-11-23T12:10:05.855Z,51.40
2022-11-23T12:12:33.211Z,51.40
2022-11-23T12:14:59.858Z,51.40
2022-11-23T12:17:33.610Z,51.40
2022-11-23T12:20:03.466Z,51.40
2022-11-23T12:22:30.183Z,51.40
2022-11-23T12:25:15.626Z,51.40
2022-11-23T12:27:49.536Z,51.40
2022-11-23T12:30:16.256Z,51.50
2022-11-23T12:32:42.989Z,51.50
2022-11-23T12:35:14.159Z,51.50
2022-11-23T12:37:43.846Z,51.50
2022-11-23T12:40:16.984Z,51.50
2022-11-23T12:42:48.330Z,51.60
2022-11-23T12:45:33.949Z,51.50
2022-11-23T12:48:12.485Z,51.50
2022-11-23T12:50:44.168Z,51.40
2022-11-23T12:53:13.936Z,51.40
2022-11-23T12:55:40.608Z,51.50
2022-11-23T12:58:16.496Z,51.40
2022-11-23T13:00:45.680Z,51.40
2022-11-23T13:03:15.398Z,51.60
2022-11-23T13:05:45.162Z,51.40
2022-11-23T13:08:15.103Z,51.40
2022-11-23T13:10:47.861Z,51.50
2022-11-23T13:13:29.644Z,51.60
2022-11-23T13:16:15.624Z,51.60
2022-11-23T13:19:04.635Z,51.50
2022-11-23T13:21:34.829Z,51.40
2022-11-23T13:24:01.597Z,51.20
2022-11-23T13:26:28.587Z,50.80
2022-11-23T13:28:57.043Z,50.70
2022-11-23T13:31:33.628Z,50.50
2022-11-23T13:34:01.140Z,50.10
2022-11-23T13:36:56.507Z,49.70
2022-11-23T13:39:36.690Z,49.70
2022-11-23T13:42:03.492Z,49.60
2022-11-23T13:44:31.526Z,49.90
2022-11-23T13:47:04.665Z,50.10
2022-11-23T13:49:50.409Z,50.20
2022-11-23T13:52:20.269Z,50.50
2022-11-23T13:55:05.634Z,50.50
2022-11-23T13:57:36.103Z,50.60
2022-11-23T14:00:21.525Z,50.70
2022-11-23T14:02:48.181Z,50.80
2022-11-23T14:05:33.714Z,50.80
2022-11-23T14:08:00.762Z,50.90
2022-11-23T14:10:28.632Z,51.00
2022-11-23T14:13:12.344Z,51.00
2022-11-23T14:15:39.915Z,51.00
2022-11-23T14:18:09.636Z,51.00
2022-11-23T14:20:45.542Z,51.10
2022-11-23T14:23:19.087Z,51.10
2022-11-23T14:25:50.106Z,51.10
2022-11-23T14:28:35.585Z,51.20
2022-11-23T14:31:21.342Z,51.20
2022-11-23T14:34:11.747Z,51.20
2022-11-23T14:36:56.892Z,51.20
2022-11-23T14:39:32.964Z,51.30
2022-11-23T14:42:00.568Z,51.30
2022-11-23T14:44:27.582Z,51.20
2022-11-23T14:47:04.786Z,51.20
2022-11-23T14:49:31.578Z,51.90
2022-11-23T14:51:58.360Z,51.20
2022-11-23T14:54:25.864Z,51.30
2022-11-23T14:57:04.818Z,51.30
2022-11-23T14:59:36.547Z,51.30
2022-11-23T15:02:04.830Z,51.30
2022-11-23T15:04:37.140Z,51.40
2022-11-23T15:07:06.007Z,51.10
2022-11-23T15:09:35.741Z,50.80
2022-11-23T15:12:08.724Z,51.30
2022-11-23T15:14:35.857Z,51.40
2022-11-23T15:17:15.933Z,51.60
2022-11-23T15:19:43.021Z,51.70
2022-11-23T15:22:14.029Z,51.70
2022-11-23T15:24:42.470Z,51.50
2022-11-23T15:27:12.759Z,51.70
2022-11-23T15:29:39.997Z,51.70
2022-11-23T15:32:34.398Z,51.80
2022-11-23T15:35:04.660Z,51.80
2022-11-23T15:37:34.212Z,51.90
2022-11-23T15:40:00.954Z,51.90
2022-11-23T15:42:27.728Z,51.90
2022-11-23T15:44:55.730Z,52.50
2022-11-23T15:47:27.658Z,52.00
2022-11-23T15:50:01.611Z,52.10
2022-11-23T15:52:29.533Z,52.10
2022-11-23T15:54:56.252Z,52.10
2022-11-23T15:57:23.830Z,52.20
2022-11-23T15:59:54.227Z,52.20
2022-11-23T16:02:21.540Z,52.20
2022-11-23T16:04:48.287Z,52.20
2022-11-23T16:07:16.395Z,52.20
2022-11-23T16:09:51.204Z,52.20
2022-11-23T16:12:29.204Z,52.20
2022-11-23T16:14:56.961Z,52.20
2022-11-23T16:17:24.426Z,52.20
2022-11-23T16:19:51.791Z,52.20
2022-11-23T16:22:25.669Z,52.20
2022-11-23T16:24:52.619Z,52.20
2022-11-23T16:27:22.088Z,52.20
2022-11-23T16:29:48.720Z,51.90
2022-11-23T16:32:25.626Z,52.20
2022-11-23T16:34:52.548Z,52.10
2022-11-23T16:37:19.333Z,52.00
2022-11-23T16:39:45.887Z,52.30
2022-11-23T16:42:16.523Z,52.10
2022-11-23T16:44:43.417Z,52.30
2022-11-23T16:47:16.264Z,52.50
2022-11-23T16:49:42.908Z,53.20
2022-11-23T16:52:11.693Z,52.50
2022-11-23T16:54:38.444Z,52.60
2022-11-23T16:57:05.283Z,52.50
2022-11-23T16:59:32.034Z,52.50
2022-11-23T17:01:58.823Z,52.40
2022-11-23T17:04:25.811Z,52.40
2022-11-23T17:06:52.516Z,52.30
2022-11-23T17:09:19.097Z,52.30
2022-11-23T17:11:46.595Z,52.00
2022-11-23T17:14:18.559Z,51.70
2022-11-23T17:16:46.215Z,51.70
2022-11-23T17:19:16.339Z,51.40
2022-11-23T17:21:43.354Z,51.00
2022-11-23T17:24:11.029Z,50.80
2022-11-23T17:26:38.628Z,50.80
2022-11-23T17:29:06.728Z,51.00
2022-11-23T17:31:33.471Z,51.10
2022-11-23T17:34:00.171Z,51.20
2022-11-23T17:36:26.783Z,51.30
2022-11-23T17:38:53.512Z,51.90
2022-11-23T17:41:20.211Z,51.40
2022-11-23T17:43:46.988Z,51.50
2022-11-23T17:46:15.123Z,51.60
2022-11-23T17:48:41.861Z,51.30
2022-11-23T17:51:09.308Z,51.60
2022-11-23T17:53:35.865Z,51.60
2022-11-23T17:56:02.416Z,51.70
2022-11-23T17:58:29.078Z,51.70
2022-11-23T18:00:55.651Z,51.70
2022-11-23T18:03:22.285Z,51.80
2022-11-23T18:05:48.926Z,51.90
2022-11-23T18:08:15.592Z,52.00
2022-11-23T18:10:42.294Z,52.10
2022-11-23T18:13:09.142Z,52.00
2022-11-23T18:15:36.141Z,52.10
2022-11-23T18:18:04.815Z,52.10
2022-11-23T18:20:31.867Z,52.20
2022-11-23T18:22:58.578Z,52.20
2022-11-23T18:25:25.251Z,52.20
2022-11-23T18:27:54.236Z,52.20
2022-11-23T18:30:20.953Z,52.20
2022-11-23T18:32:47.884Z,52.10
2022-11-23T18:35:14.572Z,52.20
2022-11-23T18:37:41.453Z,52.10
2022-11-23T18:40:08.484Z,52.20
2022-11-23T18:42:35.211Z,52.20
2022-11-23T18:45:01.785Z,52.20
2022-11-23T18:47:28.430Z,52.20
2022-11-23T18:49:55.236Z,52.20
2022-11-23T18:52:21.930Z,52.10
2022-11-23T18:54:48.563Z,52.20
2022-11-23T18:57:16.806Z,52.20
2022-11-23T18:59:58.014Z,52.10
2022-11-23T19:02:25.247Z,52.20
2022-11-23T19:04:51.877Z,51.90
2022-11-23T19:07:22.175Z,52.20
2022-11-23T19:09:53.303Z,52.80
2022-11-23T19:12:19.890Z,52.20
2022-11-23T19:14:49.634Z,52.20
2022-11-23T19:17:19.733Z,52.20
2022-11-23T19:19:46.295Z,52.20
2022-11-23T19:22:13.080Z,52.20
2022-11-23T19:24:40.203Z,52.20
2022-11-23T19:27:06.884Z,52.20
2022-11-23T19:29:33.637Z,52.20
2022-11-23T19:32:00.372Z,52.20
2022-11-23T19:34:29.969Z,52.20
2022-11-23T19:37:02.188Z,52.20
2022-11-23T19:39:28.767Z,52.20
2022-11-23T19:41:55.604Z,52.20
2022-11-23T19:44:22.407Z,52.20
2022-11-23T19:46:49.159Z,52.20
2022-11-23T19:49:15.840Z,52.10
2022-11-23T19:51:42.483Z,52.20
2022-11-23T19:54:09.898Z,52.20
2022-11-23T19:56:39.516Z,52.10
2022-11-23T19:59:06.577Z,52.20
2022-11-23T20:01:33.225Z,52.20
2022-11-23T20:04:07.986Z,52.10
2022-11-23T20:06:37.165Z,52.10
2022-11-23T20:09:04.876Z,52.10
2022-11-23T20:11:31.910Z,52.20
2022-11-23T20:14:01.408Z,52.10
2022-11-23T20:16:28.454Z,52.10
2022-11-23T20:19:04.952Z,52.10
2022-11-23T20:21:31.784Z,52.10
2022-11-23T20:24:04.350Z,52.10
2022-11-23T20:26:34.161Z,52.10
2022-11-23T20:29:00.998Z,52.10
2022-11-23T20:31:28.356Z,52.10
2022-11-23T20:33:55.042Z,52.10
2022-11-23T20:36:22.611Z,52.10
2022-11-23T20:38:49.543Z,52.00
2022-11-23T20:41:16.173Z,52.10
2022-11-23T20:43:45.493Z,52.00
2022-11-23T20:46:12.220Z,51.90
2022-11-23T20:48:40.571Z,51.90
2022-11-23T20:51:10.391Z,51.90
2022-11-23T20:53:37.406Z,51.90
2022-11-23T20:56:04.650Z,52.60
2022-11-23T20:58:32.642Z,51.90
2022-11-23T21:01:08.893Z,51.90
2022-11-23T21:03:35.723Z,51.90
2022-11-23T21:06:05.664Z,51.90
2022-11-23T21:08:37.995Z,51.90
2022-11-23T21:11:23.769Z,51.90
2022-11-23T21:14:13.880Z,51.90
2022-11-23T21:16:48.992Z,51.90
2022-11-23T21:19:17.109Z,51.90
2022-11-23T21:21:43.735Z,51.90
2022-11-23T21:24:10.380Z,51.90
2022-11-23T21:26:37.023Z,51.90
2022-11-23T21:29:11.296Z,51.90
2022-11-23T21:31:42.334Z,51.90
2022-11-23T21:34:19.529Z,51.90
2022-11-23T21:36:46.325Z,51.90
2022-11-23T21:39:12.972Z,51.90
2022-11-23T21:41:39.791Z,51.90
2022-11-23T21:44:06.724Z,51.90
2022-11-23T21:46:33.375Z,51.80
2022-11-23T21:49:00.469Z,51.90
2022-11-23T21:51:28.567Z,51.90
2022-11-23T21:53:59.074Z,51.90
2022-11-23T21:56:25.902Z,51.80
2022-11-23T21:58:52.618Z,51.70
2022-11-23T22:01:20.249Z,51.70
2022-11-23T22:03:47.795Z,51.70
2022-11-23T22:06:20.140Z,51.80
2022-11-23T22:08:48.070Z,51.60
2022-11-23T22:11:18.248Z,51.70
2022-11-23T22:13:45.013Z,51.70
2022-11-23T22:16:11.730Z,51.60
2022-11-23T22:18:38.345Z,51.70
2022-11-23T22:21:05.159Z,51.70
2022-11-23T22:23:31.753Z,51.70
2022-11-23T22:26:04.801Z,51.70
2022-11-23T22:28:34.667Z,51.80
2022-11-23T22:31:02.937Z,51.70
2022-11-23T22:33:31.524Z,51.70
2022-11-23T22:36:01.428Z,51.70
2022-11-23T22:38:28.621Z,51.70
2022-11-23T22:40:55.333Z,51.70
2022-11-23T22:43:21.945Z,51.70
2022-11-23T22:45:48.559Z,51.70
2022-11-23T22:48:15.160Z,51.70
2022-11-23T22:50:41.768Z,52.20
2022-11-23T22:53:10.558Z,51.70
2022-11-23T22:55:37.126Z,51.70
2022-11-23T22:58:03.772Z,51.70
2022-11-23T23:00:30.471Z,51.60
2022-11-23T23:02:57.141Z,51.70
2022-11-23T23:05:23.748Z,51.70
2022-11-23T23:07:55.309Z,51.70
2022-11-23T23:10:21.905Z,51.70
2022-11-23T23:12:51.043Z,51.70
2022-11-23T23:15:20.745Z,51.60
2022-11-23T23:17:47.356Z,51.70
2022-11-23T23:20:13.932Z,51.70
2022-11-23T23:22:42.261Z,51.70
2022-11-23T23:25:09.694Z,51.70
2022-11-23T23:27:39.004Z,51.70
2022-11-23T23:30:05.911Z,51.60
2022-11-23T23:32:32.478Z,51.70
2022-11-23T23:34:59.051Z,51.70
2022-11-23T23:37:25.691Z,51.70
2022-11-23T23:39:52.256Z,51.70
2022-11-23T23:42:18.997Z,51.70
2022-11-23T23:44:45.558Z,51.70
2022-11-23T23:47:13.318Z,51.70
2022-11-23T23:49:40.115Z,51.70
2022-11-23T23:52:06.749Z,51.70
2022-11-23T23:54:33.693Z,51.70
2022-11-23T23:57:00.457Z,51.70
2022-11-23T23:59:27.300Z,51.60
